sensor_id;sensor_type;location;lat;lon;timestamp;pressure;altitude;pressure_sealevel;temperature;humidity
36932;BME280;22847;42.654;23.370;2022-09-09T00:04:28;94882.34;;;24.04;51.77
36932;BME280;22847;42.654;23.370;2022-09-09T00:09:32;94907.06;;;24.11;51.79
36932;BME280;22847;42.654;23.370;2022-09-09T00:12:22;94723.34;;;23.13;51.67
36932;BME280;22847;42.654;23.370;2022-09-09T00:15:10;94905.38;;;24.16;51.39
36932;BME280;22847;42.654;23.370;2022-09-09T00:18:01;94855.84;;;23.90;51.66
36932;BME280;22847;42.654;23.370;2022-09-09T00:23:03;94838.28;;;23.83;51.64
36932;BME280;22847;42.654;23.370;2022-09-09T00:31:30;94538.09;;;22.03;51.75
36932;BME280;22847;42.654;23.370;2022-09-09T00:34:03;94668.50;;;22.69;52.08
36932;BME280;22847;42.654;23.370;2022-09-09T00:36:31;94811.38;;;23.54;52.43
36932;BME280;22847;42.654;23.370;2022-09-09T00:39:00;94855.25;;;23.70;52.89
36932;BME280;22847;42.654;23.370;2022-09-09T00:41:56;94874.81;;;23.58;53.54
36932;BME280;22847;42.654;23.370;2022-09-09T00:44:34;94870.06;;;23.60;53.09
36932;BME280;22847;42.654;23.370;2022-09-09T00:57:40;94846.03;;;23.48;53.04
36932;BME280;22847;42.654;23.370;2022-09-09T01:00:29;94845.00;;;23.24;53.74
36932;BME280;22847;42.654;23.370;2022-09-09T01:12:07;94497.44;;;20.77;53.36
36932;BME280;22847;42.654;23.370;2022-09-09T01:17:21;94814.66;;;23.07;52.96
36932;BME280;22847;42.654;23.370;2022-09-09T01:20:05;94854.13;;;23.35;52.73
36932;BME280;22847;42.654;23.370;2022-09-09T01:25:20;94843.88;;;23.13;52.95
36932;BME280;22847;42.654;23.370;2022-09-09T01:27:49;94837.19;;;23.04;52.74
36932;BME280;22847;42.654;23.370;2022-09-09T01:30:18;94641.81;;;22.08;52.65
36932;BME280;22847;42.654;23.370;2022-09-09T01:32:46;94827.47;;;23.17;52.40
36932;BME280;22847;42.654;23.370;2022-09-09T01:35:40;94845.44;;;23.21;52.66
36932;BME280;22847;42.654;23.370;2022-09-09T01:38:09;94823.16;;;22.59;53.81
36932;BME280;22847;42.654;23.370;2022-09-09T01:40:35;94651.56;;;21.51;53.65
36932;BME280;22847;42.654;23.370;2022-09-09T01:43:01;94827.72;;;22.84;53.37
36932;BME280;22847;42.654;23.370;2022-09-09T01:45:26;94810.16;;;23.07;52.47
36932;BME280;22847;42.654;23.370;2022-09-09T01:47:52;94845.94;;;23.36;52.29
36932;BME280;22847;42.654;23.370;2022-09-09T01:50:19;94630.94;;;22.16;51.94
36932;BME280;22847;42.654;23.370;2022-09-09T01:52:46;94800.94;;;23.28;52.04
36932;BME280;22847;42.654;23.370;2022-09-09T01:55:14;94861.84;;;23.68;51.89
36932;BME280;22847;42.654;23.370;2022-09-09T02:00:28;94879.50;;;23.62;51.81
36932;BME280;22847;42.654;23.370;2022-09-09T02:05:49;94871.72;;;23.61;51.80
36932;BME280;22847;42.654;23.370;2022-09-09T02:08:45;94860.56;;;23.70;52.01
36932;BME280;22847;42.654;23.370;2022-09-09T02:11:14;94838.94;;;23.60;52.07
36932;BME280;22847;42.654;23.370;2022-09-09T02:13:43;94818.03;;;23.45;51.98
36932;BME280;22847;42.654;23.370;2022-09-09T02:18:57;94850.00;;;23.64;52.21
36932;BME280;22847;42.654;23.370;2022-09-09T02:21:28;94836.94;;;23.55;52.41
36932;BME280;22847;42.654;23.370;2022-09-09T02:23:56;94722.19;;;22.84;52.32
36932;BME280;22847;42.654;23.370;2022-09-09T02:26:25;94834.75;;;23.28;53.08
36932;BME280;22847;42.654;23.370;2022-09-09T02:28:54;94846.13;;;23.35;52.73
36932;BME280;22847;42.654;23.370;2022-09-09T02:31:22;94689.94;;;22.49;52.44
36932;BME280;22847;42.654;23.370;2022-09-09T02:33:58;94841.97;;;23.45;52.29
36932;BME280;22847;42.654;23.370;2022-09-09T02:36:27;94713.53;;;22.64;52.14
36932;BME280;22847;42.654;23.370;2022-09-09T02:38:54;94796.69;;;23.27;52.24
36932;BME280;22847;42.654;23.370;2022-09-09T02:41:26;94846.88;;;23.42;52.06
36932;BME280;22847;42.654;23.370;2022-09-09T02:43:53;94823.50;;;23.26;51.89
36932;BME280;22847;42.654;23.370;2022-09-09T02:49:08;94663.47;;;22.36;52.16
36932;BME280;22847;42.654;23.370;2022-09-09T02:54:26;94874.88;;;23.51;52.08
36932;BME280;22847;42.654;23.370;2022-09-09T02:57:08;94836.31;;;23.35;52.20
36932;BME280;22847;42.654;23.370;2022-09-09T02:59:36;94871.44;;;23.50;52.48
36932;BME280;22847;42.654;23.370;2022-09-09T03:02:02;94860.16;;;23.48;52.33
36932;BME280;22847;42.654;23.370;2022-09-09T03:04:28;94859.97;;;23.50;52.32
36932;BME280;22847;42.654;23.370;2022-09-09T03:06:54;94865.94;;;23.45;52.44
36932;BME280;22847;42.654;23.370;2022-09-09T03:09:19;94660.00;;;22.11;52.68
36932;BME280;22847;42.654;23.370;2022-09-09T03:11:44;94710.53;;;22.29;52.68
36932;BME280;22847;42.654;23.370;2022-09-09T03:14:10;94879.22;;;23.21;52.93
36932;BME280;22847;42.654;23.370;2022-09-09T03:16:36;94865.69;;;23.22;52.87
36932;BME280;22847;42.654;23.370;2022-09-09T03:19:02;94873.19;;;23.32;52.97
36932;BME280;22847;42.654;23.370;2022-09-09T03:21:28;94672.88;;;22.07;52.60
36932;BME280;22847;42.654;23.370;2022-09-09T03:23:53;94823.53;;;23.01;52.88
36932;BME280;22847;42.654;23.370;2022-09-09T03:26:19;94859.56;;;23.22;53.11
36932;BME280;22847;42.654;23.370;2022-09-09T03:28:45;94810.22;;;23.01;53.00
36932;BME280;22847;42.654;23.370;2022-09-09T03:31:11;94662.97;;;21.96;53.03
36932;BME280;22847;42.654;23.370;2022-09-09T03:33:37;94869.56;;;23.26;53.07
36932;BME280;22847;42.654;23.370;2022-09-09T03:36:03;94887.66;;;23.11;53.38
36932;BME280;22847;42.654;23.370;2022-09-09T03:38:29;94827.06;;;22.88;53.59
36932;BME280;22847;42.654;23.370;2022-09-09T03:40:56;94826.13;;;22.83;54.15
36932;BME280;22847;42.654;23.370;2022-09-09T03:43:26;94895.81;;;23.16;53.57
36932;BME280;22847;42.654;23.370;2022-09-09T03:45:52;94867.03;;;23.06;53.50
36932;BME280;22847;42.654;23.370;2022-09-09T03:48:19;94894.53;;;23.25;53.55
36932;BME280;22847;42.654;23.370;2022-09-09T03:50:46;94862.66;;;23.19;53.78
36932;BME280;22847;42.654;23.370;2022-09-09T03:53:12;94854.88;;;23.17;53.54
36932;BME280;22847;42.654;23.370;2022-09-09T03:55:37;94634.03;;;21.81;53.34
36932;BME280;22847;42.654;23.370;2022-09-09T03:58:03;94872.84;;;23.22;53.53
36932;BME280;22847;42.654;23.370;2022-09-09T04:00:29;94876.53;;;23.21;53.57
36932;BME280;22847;42.654;23.370;2022-09-09T04:02:55;94786.72;;;22.66;53.70
36932;BME280;22847;42.654;23.370;2022-09-09T04:05:23;94864.72;;;23.17;53.54
36932;BME280;22847;42.654;23.370;2022-09-09T04:07:48;94719.78;;;22.20;53.33
36932;BME280;22847;42.654;23.370;2022-09-09T04:10:13;94877.97;;;23.23;53.47
36932;BME280;22847;42.654;23.370;2022-09-09T04:12:40;94876.38;;;23.16;53.85
36932;BME280;22847;42.654;23.370;2022-09-09T04:15:06;94893.78;;;23.18;53.72
36932;BME280;22847;42.654;23.370;2022-09-09T04:17:32;94704.72;;;22.14;53.69
36932;BME280;22847;42.654;23.370;2022-09-09T04:19:58;94862.88;;;23.17;53.68
36932;BME280;22847;42.654;23.370;2022-09-09T04:22:23;94861.34;;;23.03;53.34
36932;BME280;22847;42.654;23.370;2022-09-09T04:24:49;94654.63;;;21.93;53.55
36932;BME280;22847;42.654;23.370;2022-09-09T04:27:14;94711.94;;;22.32;53.37
36932;BME280;22847;42.654;23.370;2022-09-09T04:29:40;94873.72;;;23.16;53.83
36932;BME280;22847;42.654;23.370;2022-09-09T04:32:05;94896.03;;;23.14;53.97
36932;BME280;22847;42.654;23.370;2022-09-09T04:34:30;94879.34;;;23.32;54.96
36932;BME280;22847;42.654;23.370;2022-09-09T04:36:56;94879.06;;;23.40;54.18
36932;BME280;22847;42.654;23.370;2022-09-09T04:39:22;94802.44;;;22.99;53.43
36932;BME280;22847;42.654;23.370;2022-09-09T04:41:47;94839.78;;;23.11;53.59
36932;BME280;22847;42.654;23.370;2022-09-09T04:44:13;94872.53;;;23.36;53.94
36932;BME280;22847;42.654;23.370;2022-09-09T04:46:39;94696.81;;;22.32;53.69
36932;BME280;22847;42.654;23.370;2022-09-09T04:49:06;94897.66;;;23.47;53.59
36932;BME280;22847;42.654;23.370;2022-09-09T04:51:31;94880.22;;;22.12;56.07
36932;BME280;22847;42.654;23.370;2022-09-09T04:53:57;94899.69;;;22.89;55.34
36932;BME280;22847;42.654;23.370;2022-09-09T04:56:22;94821.34;;;22.91;54.03
36932;BME280;22847;42.654;23.370;2022-09-09T04:58:48;94847.34;;;24.00;51.74
36932;BME280;22847;42.654;23.370;2022-09-09T05:01:21;94839.84;;;25.86;47.35
36932;BME280;22847;42.654;23.370;2022-09-09T05:03:48;94852.16;;;27.57;42.81
36932;BME280;22847;42.654;23.370;2022-09-09T05:06:15;94857.38;;;28.19;40.98
36932;BME280;22847;42.654;23.370;2022-09-09T05:08:42;94849.84;;;29.87;37.49
36932;BME280;22847;42.654;23.370;2022-09-09T05:13:41;94846.09;;;28.00;40.76
36932;BME280;22847;42.654;23.370;2022-09-09T05:16:07;94838.19;;;28.75;39.15
36932;BME280;22847;42.654;23.370;2022-09-09T05:18:32;94853.53;;;28.15;40.07
36932;BME280;22847;42.654;23.370;2022-09-09T05:21:01;94857.16;;;29.54;37.38
36932;BME280;22847;42.654;23.370;2022-09-09T05:23:26;94822.41;;;29.80;36.89
36932;BME280;22847;42.654;23.370;2022-09-09T05:25:56;94806.06;;;28.86;38.12
36932;BME280;22847;42.654;23.370;2022-09-09T05:28:23;94510.66;;;26.01;39.93
36932;BME280;22847;42.654;23.370;2022-09-09T05:31:00;94671.50;;;25.86;41.99
36932;BME280;22847;42.654;23.370;2022-09-09T05:33:27;94846.78;;;27.40;40.70
36932;BME280;22847;42.654;23.370;2022-09-09T05:35:59;94826.59;;;27.88;40.18
36932;BME280;22847;42.654;23.370;2022-09-09T05:38:27;94837.69;;;28.35;39.57
36932;BME280;22847;42.654;23.370;2022-09-09T05:40:53;94814.53;;;28.72;38.24
36932;BME280;22847;42.654;23.370;2022-09-09T05:43:19;94660.34;;;28.05;37.69
36932;BME280;22847;42.654;23.370;2022-09-09T05:45:46;94856.31;;;29.17;37.33
36932;BME280;22847;42.654;23.370;2022-09-09T05:48:13;94842.31;;;29.15;37.38
36932;BME280;22847;42.654;23.370;2022-09-09T05:50:40;94843.91;;;29.43;37.48
36932;BME280;22847;42.654;23.370;2022-09-09T05:53:05;94759.00;;;28.51;38.41
36932;BME280;22847;42.654;23.370;2022-09-09T05:55:31;94860.25;;;28.82;38.26
36932;BME280;22847;42.654;23.370;2022-09-09T05:57:56;94787.63;;;28.67;38.82
36932;BME280;22847;42.654;23.370;2022-09-09T06:00:22;94854.22;;;28.97;37.89
36932;BME280;22847;42.654;23.370;2022-09-09T06:02:51;94818.06;;;28.78;37.44
36932;BME280;22847;42.654;23.370;2022-09-09T06:05:18;94842.66;;;28.70;37.91
36932;BME280;22847;42.654;23.370;2022-09-09T06:07:43;94851.13;;;28.35;38.03
36932;BME280;22847;42.654;23.370;2022-09-09T06:10:10;94861.09;;;28.18;39.29
36932;BME280;22847;42.654;23.370;2022-09-09T06:12:36;94829.78;;;28.23;38.96
36932;BME280;22847;42.654;23.370;2022-09-09T06:15:01;94806.88;;;28.16;38.59
36932;BME280;22847;42.654;23.370;2022-09-09T06:17:27;94867.91;;;28.09;39.51
36932;BME280;22847;42.654;23.370;2022-09-09T06:19:52;94870.47;;;27.99;39.85
36932;BME280;22847;42.654;23.370;2022-09-09T06:22:18;94829.66;;;27.96;39.47
36932;BME280;22847;42.654;23.370;2022-09-09T06:24:44;94867.03;;;28.03;39.49
36932;BME280;22847;42.654;23.370;2022-09-09T06:27:10;94860.09;;;28.24;39.23
36932;BME280;22847;42.654;23.370;2022-09-09T06:29:36;94617.88;;;27.04;38.80
36932;BME280;22847;42.654;23.370;2022-09-09T06:32:02;94831.03;;;28.64;38.38
36932;BME280;22847;42.654;23.370;2022-09-09T06:34:28;94855.34;;;28.74;38.46
36932;BME280;22847;42.654;23.370;2022-09-09T06:36:53;94853.38;;;28.92;38.01
36932;BME280;22847;42.654;23.370;2022-09-09T06:39:20;94845.50;;;29.12;37.90
36932;BME280;22847;42.654;23.370;2022-09-09T06:41:46;94845.31;;;28.92;38.07
36932;BME280;22847;42.654;23.370;2022-09-09T06:44:12;94526.31;;;26.64;38.31
36932;BME280;22847;42.654;23.370;2022-09-09T06:46:37;94691.41;;;27.57;39.21
36932;BME280;22847;42.654;23.370;2022-09-09T06:49:03;94832.63;;;28.60;38.90
36932;BME280;22847;42.654;23.370;2022-09-09T06:51:31;94849.03;;;28.86;38.37
36932;BME280;22847;42.654;23.370;2022-09-09T06:53:58;94658.50;;;27.83;38.33
36932;BME280;22847;42.654;23.370;2022-09-09T06:56:35;94623.97;;;27.87;36.94
36932;BME280;22847;42.654;23.370;2022-09-09T06:59:03;94870.97;;;29.31;37.22
36932;BME280;22847;42.654;23.370;2022-09-09T07:01:32;94860.13;;;29.53;36.91
36932;BME280;22847;42.654;23.370;2022-09-09T07:03:59;94860.78;;;29.70;36.73
36932;BME280;22847;42.654;23.370;2022-09-09T07:06:27;94677.75;;;28.29;37.06
36932;BME280;22847;42.654;23.370;2022-09-09T07:09:01;94694.16;;;28.32;36.85
36932;BME280;22847;42.654;23.370;2022-09-09T07:11:31;94878.13;;;29.25;36.72
36932;BME280;22847;42.654;23.370;2022-09-09T07:13:58;94861.56;;;29.07;37.11
36932;BME280;22847;42.654;23.370;2022-09-09T07:16:25;94818.13;;;28.83;36.56
36932;BME280;22847;42.654;23.370;2022-09-09T07:18:52;94877.78;;;29.17;38.11
36932;BME280;22847;42.654;23.370;2022-09-09T07:21:18;94676.13;;;28.28;36.35
36932;BME280;22847;42.654;23.370;2022-09-09T07:23:44;94844.19;;;29.14;36.59
36932;BME280;22847;42.654;23.370;2022-09-09T07:26:11;94840.00;;;29.28;36.43
36932;BME280;22847;42.654;23.370;2022-09-09T07:28:37;94849.47;;;29.68;35.80
36932;BME280;22847;42.654;23.370;2022-09-09T07:31:04;94849.78;;;29.72;35.66
36932;BME280;22847;42.654;23.370;2022-09-09T07:33:32;94869.16;;;29.79;35.19
36932;BME280;22847;42.654;23.370;2022-09-09T07:36:03;94819.03;;;29.25;35.37
36932;BME280;22847;42.654;23.370;2022-09-09T07:38:29;94856.38;;;29.27;35.23
36932;BME280;22847;42.654;23.370;2022-09-09T07:41:03;94828.53;;;29.33;36.29
36932;BME280;22847;42.654;23.370;2022-09-09T07:43:29;94731.44;;;29.24;35.60
36932;BME280;22847;42.654;23.370;2022-09-09T07:45:58;94842.78;;;30.18;34.80
36932;BME280;22847;42.654;23.370;2022-09-09T07:48:25;94843.84;;;30.11;34.52
36932;BME280;22847;42.654;23.370;2022-09-09T07:50:51;94852.47;;;30.13;34.19
36932;BME280;22847;42.654;23.370;2022-09-09T07:53:16;94850.31;;;29.74;34.65
36932;BME280;22847;42.654;23.370;2022-09-09T07:55:41;94874.63;;;29.52;35.59
36932;BME280;22847;42.654;23.370;2022-09-09T07:58:07;94799.81;;;29.07;35.51
36932;BME280;22847;42.654;23.370;2022-09-09T08:00:33;94848.19;;;29.12;35.66
36932;BME280;22847;42.654;23.370;2022-09-09T08:02:58;94664.22;;;28.41;35.20
36932;BME280;22847;42.654;23.370;2022-09-09T08:05:26;94770.59;;;28.83;35.48
36932;BME280;22847;42.654;23.370;2022-09-09T08:07:51;94851.97;;;29.43;35.73
36932;BME280;22847;42.654;23.370;2022-09-09T08:10:16;94730.00;;;28.48;35.05
36932;BME280;22847;42.654;23.370;2022-09-09T08:12:43;94816.47;;;28.82;35.54
36932;BME280;22847;42.654;23.370;2022-09-09T08:15:09;94855.84;;;28.98;35.92
36932;BME280;22847;42.654;23.370;2022-09-09T08:17:34;94855.91;;;28.76;36.62
36932;BME280;22847;42.654;23.370;2022-09-09T08:20:00;94733.88;;;27.87;36.91
36932;BME280;22847;42.654;23.370;2022-09-09T08:22:30;94830.59;;;28.24;37.31
36932;BME280;22847;42.654;23.370;2022-09-09T08:24:55;94851.13;;;27.96;37.99
36932;BME280;22847;42.654;23.370;2022-09-09T08:27:21;94854.47;;;28.47;37.13
36932;BME280;22847;42.654;23.370;2022-09-09T08:29:47;94663.50;;;27.53;36.91
36932;BME280;22847;42.654;23.370;2022-09-09T08:32:13;94839.75;;;28.71;36.74
36932;BME280;22847;42.654;23.370;2022-09-09T08:34:38;94756.78;;;28.43;36.81
36932;BME280;22847;42.654;23.370;2022-09-09T08:37:04;94854.69;;;28.89;36.28
36932;BME280;22847;42.654;23.370;2022-09-09T08:39:29;94833.88;;;28.74;36.82
36932;BME280;22847;42.654;23.370;2022-09-09T08:42:08;94849.81;;;28.64;37.57
36932;BME280;22847;42.654;23.370;2022-09-09T08:50:11;94833.81;;;28.48;37.82
36932;BME280;22847;42.654;23.370;2022-09-09T08:53:08;94859.41;;;28.12;38.35
36932;BME280;22847;42.654;23.370;2022-09-09T08:55:51;94871.75;;;28.13;38.12
36932;BME280;22847;42.654;23.370;2022-09-09T09:04:06;94837.34;;;28.26;38.64
36932;BME280;22847;42.654;23.370;2022-09-09T09:12:00;94816.38;;;28.45;37.80
36932;BME280;22847;42.654;23.370;2022-09-09T09:14:31;94824.81;;;28.80;38.42
36932;BME280;22847;42.654;23.370;2022-09-09T09:17:14;94854.06;;;28.82;37.80
36932;BME280;22847;42.654;23.370;2022-09-09T09:19:43;94820.28;;;29.13;36.62
36932;BME280;22847;42.654;23.370;2022-09-09T09:22:22;94853.56;;;29.12;36.59
36932;BME280;22847;42.654;23.370;2022-09-09T09:24:51;94825.81;;;28.74;37.13
36932;BME280;22847;42.654;23.370;2022-09-09T09:27:35;94616.03;;;27.48;37.38
36932;BME280;22847;42.654;23.370;2022-09-09T09:30:12;94846.34;;;28.64;37.72
36932;BME280;22847;42.654;23.370;2022-09-09T09:32:42;94656.91;;;27.61;37.90
36932;BME280;22847;42.654;23.370;2022-09-09T09:35:11;94802.09;;;28.66;37.42
36932;BME280;22847;42.654;23.370;2022-09-09T09:37:37;94833.34;;;28.77;37.47
36932;BME280;22847;42.654;23.370;2022-09-09T09:40:14;94820.56;;;28.85;37.39
36932;BME280;22847;42.654;23.370;2022-09-09T09:42:58;94826.63;;;28.75;37.48
36932;BME280;22847;42.654;23.370;2022-09-09T09:45:40;94822.66;;;28.82;38.66
36932;BME280;22847;42.654;23.370;2022-09-09T09:48:09;94797.72;;;29.14;38.33
36932;BME280;22847;42.654;23.370;2022-09-09T09:50:52;94807.03;;;29.33;37.93
36932;BME280;22847;42.654;23.370;2022-09-09T09:53:28;94797.66;;;29.41;37.37
36932;BME280;22847;42.654;23.370;2022-09-09T09:55:58;94799.28;;;29.42;36.55
36932;BME280;22847;42.654;23.370;2022-09-09T09:58:26;94802.28;;;29.13;37.11
36932;BME280;22847;42.654;23.370;2022-09-09T10:00:54;94798.53;;;29.14;37.32
36932;BME280;22847;42.654;23.370;2022-09-09T10:03:33;94667.31;;;28.32;37.09
36932;BME280;22847;42.654;23.370;2022-09-09T10:06:03;94786.72;;;28.83;37.72
36932;BME280;22847;42.654;23.370;2022-09-09T10:08:29;94790.16;;;29.11;36.82
36932;BME280;22847;42.654;23.370;2022-09-09T10:19:33;94748.72;;;28.16;38.60
36932;BME280;22847;42.654;23.370;2022-09-09T10:22:08;94807.97;;;28.36;39.94
36932;BME280;22847;42.654;23.370;2022-09-09T10:36:24;94847.75;;;28.06;40.25
36932;BME280;22847;42.654;23.370;2022-09-09T10:39:06;94819.09;;;28.07;39.83
36932;BME280;22847;42.654;23.370;2022-09-09T10:59:48;94624.56;;;26.35;42.15
36932;BME280;22847;42.654;23.370;2022-09-09T11:02:26;94794.13;;;27.29;41.93
36932;BME280;22847;42.654;23.370;2022-09-09T11:13:00;94807.19;;;26.92;43.18
36932;BME280;22847;42.654;23.370;2022-09-09T11:15:41;94818.41;;;27.23;42.91
36932;BME280;22847;42.654;23.370;2022-09-09T11:18:13;94674.84;;;26.22;43.26
36932;BME280;22847;42.654;23.370;2022-09-09T11:20:41;94789.03;;;26.94;44.03
36932;BME280;22847;42.654;23.370;2022-09-09T11:23:15;94835.44;;;27.17;44.13
36932;BME280;22847;42.654;23.370;2022-09-09T11:25:49;94828.28;;;27.39;43.07
36932;BME280;22847;42.654;23.370;2022-09-09T11:31:19;94793.56;;;27.27;43.85
36932;BME280;22847;42.654;23.370;2022-09-09T11:34:01;94794.28;;;27.56;44.27
36932;BME280;22847;42.654;23.370;2022-09-09T11:39:30;94777.44;;;27.77;43.17
36932;BME280;22847;42.654;23.370;2022-09-09T11:44:40;94609.00;;;26.49;43.50
36932;BME280;22847;42.654;23.370;2022-09-09T11:47:35;94768.16;;;27.30;44.13
36932;BME280;22847;42.654;23.370;2022-09-09T11:52:45;94554.38;;;26.45;43.82
36932;BME280;22847;42.654;23.370;2022-09-09T11:57:45;94726.69;;;27.49;43.53
36932;BME280;22847;42.654;23.370;2022-09-09T12:00:36;94752.31;;;27.45;43.44
36932;BME280;22847;42.654;23.370;2022-09-09T12:03:04;94729.94;;;27.51;43.67
36932;BME280;22847;42.654;23.370;2022-09-09T12:05:44;94689.94;;;27.28;43.18
36932;BME280;22847;42.654;23.370;2022-09-09T12:08:15;94746.38;;;27.60;43.20
36932;BME280;22847;42.654;23.370;2022-09-09T12:10:53;94589.53;;;26.70;43.30
36932;BME280;22847;42.654;23.370;2022-09-09T12:13:22;94724.66;;;27.78;42.75
36932;BME280;22847;42.654;23.370;2022-09-09T12:18:32;94690.56;;;27.35;43.26
36932;BME280;22847;42.654;23.370;2022-09-09T12:21:33;94725.44;;;27.78;43.58
36932;BME280;22847;42.654;23.370;2022-09-09T12:24:10;94745.88;;;27.84;43.10
36932;BME280;22847;42.654;23.370;2022-09-09T12:27:07;94723.41;;;27.64;43.49
36932;BME280;22847;42.654;23.370;2022-09-09T12:29:50;94714.34;;;27.70;43.66
36932;BME280;22847;42.654;23.370;2022-09-09T12:32:23;94715.34;;;27.85;42.88
36932;BME280;22847;42.654;23.370;2022-09-09T12:37:39;94705.00;;;27.72;43.27
36932;BME280;22847;42.654;23.370;2022-09-09T12:40:26;94704.56;;;27.59;43.49
36932;BME280;22847;42.654;23.370;2022-09-09T12:42:52;94680.16;;;27.38;43.33
36932;BME280;22847;42.654;23.370;2022-09-09T12:45:23;94705.19;;;27.66;43.34
36932;BME280;22847;42.654;23.370;2022-09-09T12:50:27;94702.09;;;27.74;43.72
36932;BME280;22847;42.654;23.370;2022-09-09T12:53:19;94681.28;;;27.59;44.62
36932;BME280;22847;42.654;23.370;2022-09-09T12:55:52;94552.63;;;26.72;44.23
36932;BME280;22847;42.654;23.370;2022-09-09T12:58:19;94673.72;;;27.56;43.99
36932;BME280;22847;42.654;23.370;2022-09-09T13:00:53;94539.91;;;26.79;43.48
36932;BME280;22847;42.654;23.370;2022-09-09T13:03:21;94709.72;;;28.09;43.33
36932;BME280;22847;42.654;23.370;2022-09-09T13:05:48;94675.09;;;28.29;42.64
36932;BME280;22847;42.654;23.370;2022-09-09T13:08:14;94656.66;;;28.11;42.40
36932;BME280;22847;42.654;23.370;2022-09-09T13:10:47;94644.25;;;28.05;42.65
36932;BME280;22847;42.654;23.370;2022-09-09T13:13:16;94656.47;;;28.17;42.86
36932;BME280;22847;42.654;23.370;2022-09-09T13:15:51;94666.75;;;28.04;43.70
36932;BME280;22847;42.654;23.370;2022-09-09T13:18:21;94658.59;;;27.93;43.50
36932;BME280;22847;42.654;23.370;2022-09-09T13:20:48;94466.50;;;26.92;42.94
36932;BME280;22847;42.654;23.370;2022-09-09T13:23:15;94491.50;;;27.02;43.02
36932;BME280;22847;42.654;23.370;2022-09-09T13:25:57;94632.03;;;27.92;43.29
36932;BME280;22847;42.654;23.370;2022-09-09T13:28:26;94635.47;;;27.82;43.78
36932;BME280;22847;42.654;23.370;2022-09-09T13:31:24;94626.38;;;27.88;43.80
36932;BME280;22847;42.654;23.370;2022-09-09T13:33:53;94606.22;;;27.81;44.05
36932;BME280;22847;42.654;23.370;2022-09-09T13:36:28;94413.38;;;26.84;43.54
36932;BME280;22847;42.654;23.370;2022-09-09T13:38:59;94542.56;;;27.66;43.61
36932;BME280;22847;42.654;23.370;2022-09-09T13:43:56;94621.81;;;27.62;44.78
36932;BME280;22847;42.654;23.370;2022-09-09T13:51:34;94643.59;;;27.05;45.58
36932;BME280;22847;42.654;23.370;2022-09-09T13:54:03;94437.44;;;25.85;46.05
36932;BME280;22847;42.654;23.370;2022-09-09T13:56:29;94596.56;;;26.76;46.71
36932;BME280;22847;42.654;23.370;2022-09-09T13:58:55;94631.31;;;27.10;46.42
36932;BME280;22847;42.654;23.370;2022-09-09T14:01:20;94633.25;;;27.14;46.24
36932;BME280;22847;42.654;23.370;2022-09-09T14:03:45;94637.38;;;27.43;45.73
36932;BME280;22847;42.654;23.370;2022-09-09T14:06:11;94616.41;;;27.57;45.25
36932;BME280;22847;42.654;23.370;2022-09-09T14:08:36;94605.69;;;27.14;46.37
36932;BME280;22847;42.654;23.370;2022-09-09T14:11:03;94626.63;;;27.60;45.53
36932;BME280;22847;42.654;23.370;2022-09-09T14:13:29;94470.34;;;26.79;45.41
36932;BME280;22847;42.654;23.370;2022-09-09T14:15:54;94624.22;;;27.85;44.84
36932;BME280;22847;42.654;23.370;2022-09-09T14:18:20;94635.84;;;27.69;44.43
36932;BME280;22847;42.654;23.370;2022-09-09T14:20:47;94382.16;;;26.02;45.29
36932;BME280;22847;42.654;23.370;2022-09-09T14:23:13;94570.00;;;27.30;44.85
36932;BME280;22847;42.654;23.370;2022-09-09T14:25:40;94615.78;;;27.72;44.97
36932;BME280;22847;42.654;23.370;2022-09-09T14:28:08;94613.34;;;27.05;46.30
36932;BME280;22847;42.654;23.370;2022-09-09T14:30:34;94618.03;;;26.81;47.09
36932;BME280;22847;42.654;23.370;2022-09-09T14:33:00;94398.31;;;25.57;47.18
36932;BME280;22847;42.654;23.370;2022-09-09T14:35:25;94629.78;;;27.14;46.38
36932;BME280;22847;42.654;23.370;2022-09-09T14:37:51;94629.31;;;27.00;45.76
36932;BME280;22847;42.654;23.370;2022-09-09T14:40:16;94602.50;;;27.17;45.44
36932;BME280;22847;42.654;23.370;2022-09-09T14:42:42;94316.88;;;25.26;45.45
36932;BME280;22847;42.654;23.370;2022-09-09T14:45:07;94615.41;;;27.20;45.86
36932;BME280;22847;42.654;23.370;2022-09-09T14:47:33;94444.69;;;26.40;45.48
36932;BME280;22847;42.654;23.370;2022-09-09T14:49:58;94606.22;;;26.77;46.90
36932;BME280;22847;42.654;23.370;2022-09-09T14:52:26;94585.78;;;26.71;46.98
36932;BME280;22847;42.654;23.370;2022-09-09T14:54:51;94604.53;;;26.88;46.53
36932;BME280;22847;42.654;23.370;2022-09-09T14:57:16;94541.56;;;26.63;46.01
36932;BME280;22847;42.654;23.370;2022-09-09T14:59:42;94582.53;;;26.47;47.12
36932;BME280;22847;42.654;23.370;2022-09-09T15:02:08;94579.59;;;26.15;47.51
36932;BME280;22847;42.654;23.370;2022-09-09T15:04:34;94615.94;;;26.16;48.21
36932;BME280;22847;42.654;23.370;2022-09-09T15:07:00;94561.00;;;25.75;48.47
36932;BME280;22847;42.654;23.370;2022-09-09T15:09:25;94545.38;;;25.84;48.11
36932;BME280;22847;42.654;23.370;2022-09-09T15:11:51;94425.38;;;25.04;48.42
36932;BME280;22847;42.654;23.370;2022-09-09T15:14:16;94629.28;;;26.28;48.01
36932;BME280;22847;42.654;23.370;2022-09-09T15:16:42;94425.34;;;25.16;48.25
36932;BME280;22847;42.654;23.370;2022-09-09T15:19:07;94626.91;;;26.48;48.17
36932;BME280;22847;42.654;23.370;2022-09-09T15:21:36;94384.41;;;25.10;47.87
36932;BME280;22847;42.654;23.370;2022-09-09T15:24:02;94621.66;;;26.70;47.91
36932;BME280;22847;42.654;23.370;2022-09-09T15:26:28;94556.91;;;26.35;47.31
36932;BME280;22847;42.654;23.370;2022-09-09T15:28:55;94607.19;;;26.71;46.79
36932;BME280;22847;42.654;23.370;2022-09-09T15:31:24;94631.34;;;26.93;47.03